Time;durP1;ratioP1;P1;durP2;ratioP2;P2;SDS_P1;SDS_P2;PMS_P1;PMS_P2;Temp;Humidity;BMP_temperature;BMP_pressure;BME280_temperature;BME280_humidity;BME280_pressure;Samples;Min_cycle;Max_cycle;Signal;HPM_P1;HPM_P2
2023/01/21 00:01:04;;;;;;;;;;;-2.30;99.90;;;;;;4940646;29;20305;-72
2023/01/21 00:03:36;;;;;;;;;;;-2.30;99.90;;;;;;4934850;29;19927;-72
2023/01/21 00:06:02;;;;;;;;;;;-2.30;99.90;;;;;;4955212;28;19930;-72
2023/01/21 00:08:34;;;;;;;;;;;-2.40;99.90;;;;;;4952680;28;20313;-72
2023/01/21 00:11:07;;;;;;;;;;;-2.40;99.90;;;;;;4939291;29;20351;-72
2023/01/21 00:13:39;;;;;;;;;;;-2.50;99.90;;;;;;4935017;29;19977;-72
2023/01/21 00:16:12;;;;;;;;;;;-2.50;99.90;;;;;;4939458;28;19930;-72
2023/01/21 00:18:46;;;;;;;;;;;-2.50;99.90;;;;;;4951247;28;19931;-72
2023/01/21 00:21:18;;;;;;;;;;;-2.50;99.90;;;;;;4938571;29;20382;-72
2023/01/21 00:23:44;;;;;;;;;;;-2.50;99.90;;;;;;4941660;29;20321;-71
2023/01/21 00:26:11;;;;;;;;;;;-2.50;99.90;;;;;;4956786;28;20297;-72
2023/01/21 00:28:43;;;;;;;;;;;-2.50;99.90;;;;;;4937404;29;19927;-71
2023/01/21 00:31:14;;;;;;;;;;;-2.60;99.90;;;;;;4941742;29;20390;-71
2023/01/21 00:33:41;;;;;;;;;;;-2.60;99.90;;;;;;4948337;28;19982;-70
2023/01/21 00:36:09;;;;;;;;;;;-2.60;99.90;;;;;;4958094;28;19934;-72
2023/01/21 00:38:40;;;;;;;;;;;-2.70;99.90;;;;;;4934694;29;19982;-72
2023/01/21 00:41:12;;;;;;;;;;;-2.70;99.90;;;;;;4951133;29;19927;-72
2023/01/21 00:43:44;;;;;;;;;;;-2.70;99.90;;;;;;4941086;29;20341;-72
2023/01/21 00:46:15;;;;;;;;;;;-2.60;99.90;;;;;;4944155;28;19930;-72
2023/01/21 00:48:47;;;;;;;;;;;-2.60;99.90;;;;;;4933830;29;19938;-72
2023/01/21 00:51:14;;;;;;;;;;;-2.60;99.90;;;;;;4952847;29;19926;-72
2023/01/21 00:53:45;;;;;;;;;;;-2.60;99.90;;;;;;4948143;28;19978;-72
2023/01/21 00:56:17;;;;;;;;;;;-2.60;99.90;;;;;;4933045;29;20301;-73
2023/01/21 00:58:43;;;;;;;;;;;-2.50;99.90;;;;;;4928186;29;19934;-72
2023/01/21 01:01:16;;;;;;;;;;;-2.50;99.90;;;;;;4939737;29;19930;-71
2023/01/21 01:03:48;;;;;;;;;;;-2.50;99.90;;;;;;4950577;28;19938;-72
2023/01/21 01:06:21;;;;;;;;;;;-2.50;99.90;;;;;;4954841;28;19984;-72
2023/01/21 01:08:56;;;;;;;;;;;-2.50;99.90;;;;;;4935651;29;19938;-72
2023/01/21 01:11:25;;;;;;;;;;;-2.50;99.90;;;;;;4934784;29;20021;-72
2023/01/21 01:13:57;;;;;;;;;;;-2.50;99.90;;;;;;4934183;28;19930;-72
2023/01/21 01:16:24;;;;;;;;;;;-2.50;99.90;;;;;;4954157;28;20456;-70
2023/01/21 01:18:55;;;;;;;;;;;-2.40;99.90;;;;;;4932110;29;20059;-72
2023/01/21 01:21:27;;;;;;;;;;;-2.40;99.90;;;;;;4935943;29;19978;-72
2023/01/21 01:24:01;;;;;;;;;;;-2.40;99.90;;;;;;4920996;28;19926;-71
2023/01/21 01:26:28;;;;;;;;;;;-2.40;99.90;;;;;;4956106;28;19954;-71
2023/01/21 01:29:00;;;;;;;;;;;-2.40;99.90;;;;;;4956430;28;19958;-69
2023/01/21 01:31:26;;;;;;;;;;;-2.30;99.90;;;;;;4970303;28;19951;-71
2023/01/21 01:33:58;;;;;;;;;;;-2.30;99.90;;;;;;4940271;28;19930;-72
2023/01/21 01:36:30;;;;;;;;;;;-2.30;99.90;;;;;;4951505;28;19978;-72
2023/01/21 01:38:59;;;;;;;;;;;-2.30;99.90;;;;;;4930148;29;19933;-72
2023/01/21 01:41:28;;;;;;;;;;;-2.30;99.90;;;;;;4947128;28;19955;-72
2023/01/21 01:44:01;;;;;;;;;;;-2.20;99.90;;;;;;4951178;28;19934;-72
2023/01/21 01:46:34;;;;;;;;;;;-2.20;99.90;;;;;;4934492;29;20037;-72
2023/01/21 01:49:05;;;;;;;;;;;-2.20;99.90;;;;;;4934784;29;19930;-72
2023/01/21 01:51:39;;;;;;;;;;;-2.20;99.90;;;;;;4934358;29;19968;-71
2023/01/21 01:54:08;;;;;;;;;;;-2.20;99.90;;;;;;4919742;28;20025;-72
2023/01/21 01:56:38;;;;;;;;;;;-2.20;99.90;;;;;;4938797;29;19935;-72
2023/01/21 01:59:06;;;;;;;;;;;-2.20;99.90;;;;;;4935647;28;19927;-72
2023/01/21 02:01:35;;;;;;;;;;;-2.20;99.90;;;;;;4956999;28;19952;-72
2023/01/21 02:04:05;;;;;;;;;;;-2.20;99.90;;;;;;4914102;28;19933;-71
2023/01/21 02:06:34;;;;;;;;;;;-2.30;99.90;;;;;;4934178;29;19938;-71
2023/01/21 02:09:02;;;;;;;;;;;-2.30;99.90;;;;;;4924865;29;19937;-72
2023/01/21 02:11:31;;;;;;;;;;;-2.30;99.90;;;;;;4945163;28;19926;-72
2023/01/21 02:13:59;;;;;;;;;;;-2.30;99.90;;;;;;4939879;28;19933;-72
2023/01/21 02:16:30;;;;;;;;;;;-2.30;99.90;;;;;;4955404;28;20304;-72
2023/01/21 02:19:17;;;;;;;;;;;-2.30;99.90;;;;;;4945359;28;20582;-71
2023/01/21 02:21:58;;;;;;;;;;;-2.30;99.90;;;;;;4953286;28;19931;-72
2023/01/21 02:24:35;;;;;;;;;;;-2.30;99.90;;;;;;4937277;29;19926;-72
2023/01/21 02:27:16;;;;;;;;;;;-2.30;99.90;;;;;;4929955;28;20392;-73
2023/01/21 02:29:51;;;;;;;;;;;-2.40;99.90;;;;;;4904112;29;20029;-71
2023/01/21 02:32:40;;;;;;;;;;;-2.50;99.90;;;;;;4948789;29;19933;-72
2023/01/21 02:35:14;;;;;;;;;;;-2.40;99.90;;;;;;4918762;28;19926;-72
2023/01/21 02:37:52;;;;;;;;;;;-2.50;99.90;;;;;;4952056;28;19927;-72
2023/01/21 02:40:36;;;;;;;;;;;-2.50;99.90;;;;;;4933430;29;20308;-70
2023/01/21 02:43:12;;;;;;;;;;;-2.50;99.90;;;;;;4954314;28;19933;-70
2023/01/21 02:45:46;;;;;;;;;;;-2.50;99.90;;;;;;4923246;29;19930;-72
2023/01/21 02:48:26;;;;;;;;;;;-2.50;99.90;;;;;;4953494;28;19934;-72
2023/01/21 02:50:55;;;;;;;;;;;-2.60;99.90;;;;;;4917188;29;20134;-72
2023/01/21 02:53:25;;;;;;;;;;;-2.60;99.90;;;;;;4949165;28;19930;-72
2023/01/21 02:55:55;;;;;;;;;;;-2.60;99.90;;;;;;4938961;28;19930;-72
2023/01/21 02:58:31;;;;;;;;;;;-2.60;99.90;;;;;;4934476;29;19926;-72
2023/01/21 03:01:11;;;;;;;;;;;-2.70;99.90;;;;;;4913603;29;20001;-72
2023/01/21 03:03:58;;;;;;;;;;;-2.70;99.90;;;;;;4939674;28;20036;-71
2023/01/21 03:06:50;;;;;;;;;;;-2.70;99.90;;;;;;4941899;28;20488;-72
2023/01/21 03:09:23;;;;;;;;;;;-2.70;99.90;;;;;;4936474;29;20561;-71
2023/01/21 03:12:01;;;;;;;;;;;-2.80;99.90;;;;;;4936115;29;20037;-72
2023/01/21 03:17:29;;;;;;;;;;;-2.80;99.90;;;;;;4935030;29;19932;-72
2023/01/21 03:20:11;;;;;;;;;;;-2.90;99.90;;;;;;4921354;29;19931;-72
2023/01/21 03:22:40;;;;;;;;;;;-2.90;99.90;;;;;;4918610;29;19927;-72
2023/01/21 03:25:10;;;;;;;;;;;-2.90;99.90;;;;;;4932780;28;19930;-72
2023/01/21 03:27:41;;;;;;;;;;;-2.90;99.90;;;;;;4954418;28;19970;-71
2023/01/21 03:30:17;;;;;;;;;;;-3.00;99.90;;;;;;4939886;29;19926;-71
2023/01/21 03:32:48;;;;;;;;;;;-3.00;99.90;;;;;;4951856;29;19931;-71
2023/01/21 03:35:19;;;;;;;;;;;-3.00;99.90;;;;;;4919452;29;19933;-72
2023/01/21 03:37:54;;;;;;;;;;;-3.00;99.90;;;;;;4934825;29;20033;-72
2023/01/21 03:40:27;;;;;;;;;;;-3.00;99.90;;;;;;4942368;28;19934;-72
2023/01/21 03:42:58;;;;;;;;;;;-3.00;99.90;;;;;;4921377;29;19926;-70
2023/01/21 03:45:32;;;;;;;;;;;-3.00;99.90;;;;;;4949191;28;20449;-71
2023/01/21 03:48:05;;;;;;;;;;;-3.00;99.90;;;;;;4942868;28;20283;-72
2023/01/21 03:50:39;;;;;;;;;;;-3.00;99.90;;;;;;4919691;29;20366;-71
2023/01/21 03:53:07;;;;;;;;;;;-3.00;99.90;;;;;;4915460;28;20437;-71
2023/01/21 03:55:39;;;;;;;;;;;-3.00;99.90;;;;;;4945473;28;19930;-72
2023/01/21 03:58:08;;;;;;;;;;;-3.00;99.90;;;;;;4926276;29;20289;-72
2023/01/21 04:00:37;;;;;;;;;;;-3.00;99.90;;;;;;4932450;29;19926;-71
2023/01/21 04:03:06;;;;;;;;;;;-3.00;99.90;;;;;;4959901;29;20017;-71
2023/01/21 04:05:35;;;;;;;;;;;-3.00;99.90;;;;;;4956475;29;19930;-72
2023/01/21 04:08:03;;;;;;;;;;;-3.00;99.90;;;;;;4942117;29;20377;-72
2023/01/21 04:10:32;;;;;;;;;;;-3.00;99.90;;;;;;4936391;29;19937;-72
2023/01/21 04:13:02;;;;;;;;;;;-3.00;99.90;;;;;;4913210;29;19930;-71
2023/01/21 04:15:31;;;;;;;;;;;-3.00;99.90;;;;;;4940870;28;20313;-70
2023/01/21 04:18:01;;;;;;;;;;;-3.00;99.90;;;;;;4936859;29;19927;-71
2023/01/21 04:20:29;;;;;;;;;;;-3.00;99.90;;;;;;4925670;29;19926;-71
2023/01/21 04:23:00;;;;;;;;;;;-3.00;99.90;;;;;;4967337;28;19937;-70
2023/01/21 04:25:29;;;;;;;;;;;-3.00;99.90;;;;;;4943929;29;19926;-72
2023/01/21 04:27:58;;;;;;;;;;;-3.00;99.90;;;;;;4939516;29;19926;-72
2023/01/21 04:30:27;;;;;;;;;;;-3.10;99.90;;;;;;4929109;29;19969;-72
2023/01/21 04:32:55;;;;;;;;;;;-3.10;99.90;;;;;;4952033;28;20322;-72
2023/01/21 04:35:26;;;;;;;;;;;-3.20;99.90;;;;;;4923604;29;20025;-72
2023/01/21 04:37:55;;;;;;;;;;;-3.20;99.90;;;;;;4940514;29;20080;-71
2023/01/21 04:40:24;;;;;;;;;;;-3.20;99.90;;;;;;4953088;28;19946;-70
2023/01/21 04:42:53;;;;;;;;;;;-3.30;99.90;;;;;;4949421;29;19958;-72
2023/01/21 04:45:22;;;;;;;;;;;-3.30;99.90;;;;;;4923421;29;19950;-72
2023/01/21 04:47:51;;;;;;;;;;;-3.30;99.90;;;;;;4934694;29;19926;-72
2023/01/21 04:50:20;;;;;;;;;;;-3.40;99.90;;;;;;4938771;28;19926;-70
2023/01/21 04:52:49;;;;;;;;;;;-3.40;99.90;;;;;;4920205;29;19931;-70
2023/01/21 04:55:19;;;;;;;;;;;-3.40;99.90;;;;;;4922147;29;19926;-72
2023/01/21 04:57:48;;;;;;;;;;;-3.40;99.90;;;;;;4934691;29;20293;-72
2023/01/21 05:00:17;;;;;;;;;;;-3.40;99.90;;;;;;4935141;28;19926;-72
2023/01/21 05:02:47;;;;;;;;;;;-3.40;99.90;;;;;;4917747;29;19926;-72
2023/01/21 05:05:15;;;;;;;;;;;-3.40;99.90;;;;;;4940146;28;19926;-72
2023/01/21 05:07:44;;;;;;;;;;;-3.30;99.90;;;;;;4938429;28;19978;-72
2023/01/21 05:10:17;;;;;;;;;;;-3.30;99.90;;;;;;4928672;29;19957;-72
2023/01/21 05:12:48;;;;;;;;;;;-3.30;99.90;;;;;;4951561;29;19949;-72
2023/01/21 05:15:17;;;;;;;;;;;-3.30;99.90;;;;;;4920458;29;20047;-72
2023/01/21 05:17:46;;;;;;;;;;;-3.30;99.90;;;;;;4926755;29;19933;-72
2023/01/21 05:20:15;;;;;;;;;;;-3.30;99.90;;;;;;4948075;29;20013;-72
2023/01/21 05:22:47;;;;;;;;;;;-3.30;99.90;;;;;;4928085;29;19937;-70
2023/01/21 05:25:17;;;;;;;;;;;-3.30;99.90;;;;;;4929977;28;20020;-72
2023/01/21 05:27:53;;;;;;;;;;;-3.20;99.90;;;;;;4911637;29;20409;-72
2023/01/21 05:30:21;;;;;;;;;;;-3.20;99.90;;;;;;4934798;29;19933;-71
2023/01/21 05:32:53;;;;;;;;;;;-3.20;99.90;;;;;;4924819;29;20425;-72
2023/01/21 05:35:22;;;;;;;;;;;-3.20;99.90;;;;;;4945322;28;19941;-72
2023/01/21 05:37:50;;;;;;;;;;;-3.10;99.90;;;;;;4936713;28;20282;-72
2023/01/21 05:40:19;;;;;;;;;;;-3.10;99.90;;;;;;4950594;28;19926;-71
2023/01/21 05:42:47;;;;;;;;;;;-3.10;99.90;;;;;;4950327;28;19957;-72
2023/01/21 05:45:15;;;;;;;;;;;-3.10;99.90;;;;;;4937171;29;19926;-72
2023/01/21 05:47:44;;;;;;;;;;;-3.10;99.90;;;;;;4927132;29;19933;-72
2023/01/21 05:50:14;;;;;;;;;;;-3.10;99.90;;;;;;4941001;29;19935;-72
2023/01/21 05:52:43;;;;;;;;;;;-3.10;99.90;;;;;;4927655;29;19926;-70
2023/01/21 05:55:11;;;;;;;;;;;-3.10;99.90;;;;;;4921524;28;19930;-72
2023/01/21 05:57:40;;;;;;;;;;;-3.10;99.90;;;;;;4930828;29;19926;-72
2023/01/21 06:00:08;;;;;;;;;;;-3.10;99.90;;;;;;4919206;29;20381;-72
2023/01/21 06:02:37;;;;;;;;;;;-3.10;99.90;;;;;;4940526;29;19930;-72
2023/01/21 06:05:06;;;;;;;;;;;-3.10;99.90;;;;;;4918493;28;20301;-72
2023/01/21 06:07:34;;;;;;;;;;;-3.00;99.90;;;;;;4923209;29;19939;-74
2023/01/21 06:10:03;;;;;;;;;;;-3.00;99.90;;;;;;4918768;28;19933;-72
2023/01/21 06:12:33;;;;;;;;;;;-3.10;99.90;;;;;;4954696;28;19985;-71
2023/01/21 06:15:02;;;;;;;;;;;-3.00;99.90;;;;;;4929300;29;19934;-72
2023/01/21 06:17:32;;;;;;;;;;;-3.00;99.90;;;;;;4921890;28;19930;-72
2023/01/21 06:20:00;;;;;;;;;;;-3.00;99.90;;;;;;4941213;29;19934;-72
2023/01/21 06:22:36;;;;;;;;;;;-3.00;99.90;;;;;;4927879;29;19931;-72
2023/01/21 06:25:05;;;;;;;;;;;-3.00;99.90;;;;;;4941140;28;19933;-72
2023/01/21 06:27:36;;;;;;;;;;;-2.90;99.90;;;;;;4940950;28;20025;-72
2023/01/21 06:30:05;;;;;;;;;;;-2.90;99.90;;;;;;4936447;29;19931;-71
2023/01/21 06:32:48;;;;;;;;;;;-2.90;99.90;;;;;;4925659;29;20017;-73
2023/01/21 06:35:19;;;;;;;;;;;-2.90;99.90;;;;;;4938072;28;19933;-72
2023/01/21 06:37:48;;;;;;;;;;;-2.80;99.90;;;;;;4921913;29;20035;-70
2023/01/21 06:40:18;;;;;;;;;;;-2.80;99.90;;;;;;4957890;28;19933;-73
2023/01/21 06:42:47;;;;;;;;;;;-2.80;99.90;;;;;;4922175;29;19973;-72
2023/01/21 06:45:16;;;;;;;;;;;-2.80;99.90;;;;;;4910512;28;19937;-70
2023/01/21 06:47:45;;;;;;;;;;;-2.80;99.90;;;;;;4926893;29;20285;-72
2023/01/21 06:50:18;;;;;;;;;;;-2.80;99.90;;;;;;4936913;29;20041;-72
2023/01/21 06:52:47;;;;;;;;;;;-2.70;99.90;;;;;;4940500;29;19986;-72
2023/01/21 06:55:16;;;;;;;;;;;-2.70;99.90;;;;;;4940836;28;19931;-73
2023/01/21 06:57:47;;;;;;;;;;;-2.70;99.90;;;;;;4926235;29;19927;-72
2023/01/21 07:00:17;;;;;;;;;;;-2.70;99.90;;;;;;4925218;29;20025;-73
2023/01/21 07:02:51;;;;;;;;;;;-2.70;99.90;;;;;;4930065;29;19930;-72
2023/01/21 07:05:34;;;;;;;;;;;-2.70;99.90;;;;;;4924351;29;19956;-71
2023/01/21 07:08:07;;;;;;;;;;;-2.60;99.90;;;;;;4915369;29;19970;-72
2023/01/21 07:10:36;;;;;;;;;;;-2.70;99.90;;;;;;4929976;28;19914;-70
2023/01/21 07:13:05;;;;;;;;;;;-2.60;99.90;;;;;;4927764;28;19961;-70
2023/01/21 07:15:36;;;;;;;;;;;-2.60;99.90;;;;;;4959960;28;19986;-72
2023/01/21 07:18:09;;;;;;;;;;;-2.60;99.90;;;;;;4946362;29;19930;-73
2023/01/21 07:20:39;;;;;;;;;;;-2.60;99.90;;;;;;4930647;29;19934;-73
2023/01/21 07:23:08;;;;;;;;;;;-2.60;99.90;;;;;;4939038;28;19927;-72
2023/01/21 07:25:38;;;;;;;;;;;-2.60;99.90;;;;;;4955797;28;20282;-72
2023/01/21 07:28:08;;;;;;;;;;;-2.60;99.90;;;;;;4955593;28;19927;-72
2023/01/21 07:30:37;;;;;;;;;;;-2.60;99.90;;;;;;4936590;28;19934;-73
2023/01/21 07:33:10;;;;;;;;;;;-2.60;99.90;;;;;;4925053;28;19930;-73
2023/01/21 07:35:43;;;;;;;;;;;-2.60;99.90;;;;;;4925108;29;20017;-70
2023/01/21 07:38:12;;;;;;;;;;;-2.60;99.90;;;;;;4929297;29;19930;-71
2023/01/21 07:40:53;;;;;;;;;;;-2.60;99.90;;;;;;4930585;29;19974;-77
2023/01/21 07:43:23;;;;;;;;;;;-2.50;99.90;;;;;;4920530;29;19981;-71
2023/01/21 07:46:07;;;;;;;;;;;-2.50;99.90;;;;;;4938670;28;19931;-71
2023/01/21 07:48:49;;;;;;;;;;;-2.50;99.90;;;;;;4946127;28;19977;-73
2023/01/21 07:51:22;;;;;;;;;;;-2.40;99.90;;;;;;4928688;29;19931;-71
2023/01/21 07:53:58;;;;;;;;;;;-2.40;99.90;;;;;;4924422;28;19930;-71
2023/01/21 07:56:33;;;;;;;;;;;-2.30;99.90;;;;;;4953495;29;20012;-71
2023/01/21 07:59:27;;;;;;;;;;;-2.30;99.90;;;;;;4925540;29;19922;-71
2023/01/21 08:01:58;;;;;;;;;;;-2.20;99.90;;;;;;4956880;28;19938;-72
2023/01/21 08:04:28;;;;;;;;;;;-2.20;99.90;;;;;;4921975;29;19927;-71
2023/01/21 08:06:58;;;;;;;;;;;-2.20;99.90;;;;;;4947393;28;19974;-71
2023/01/21 08:09:28;;;;;;;;;;;-2.10;99.90;;;;;;4929287;29;19927;-73
2023/01/21 08:11:58;;;;;;;;;;;-2.00;99.90;;;;;;4953403;29;20289;-70
2023/01/21 08:14:28;;;;;;;;;;;-2.00;99.90;;;;;;4957125;28;20067;-71
2023/01/21 08:16:56;;;;;;;;;;;-2.00;99.90;;;;;;4934132;29;19926;-71
2023/01/21 08:19:26;;;;;;;;;;;-1.90;99.90;;;;;;4926522;29;19926;-73
2023/01/21 08:21:56;;;;;;;;;;;-1.80;99.90;;;;;;4923544;29;19933;-71
2023/01/21 08:24:29;;;;;;;;;;;-1.80;99.90;;;;;;4952371;28;20293;-71
2023/01/21 08:27:02;;;;;;;;;;;-1.70;99.90;;;;;;4922838;29;19981;-72
2023/01/21 08:29:31;;;;;;;;;;;-1.70;99.90;;;;;;4926351;29;20438;-71
2023/01/21 08:32:05;;;;;;;;;;;-1.70;99.90;;;;;;4905952;29;19990;-71
2023/01/21 08:34:38;;;;;;;;;;;-1.70;99.90;;;;;;4924301;29;20017;-71
2023/01/21 08:37:07;;;;;;;;;;;-1.70;99.90;;;;;;4951602;28;19926;-71
2023/01/21 08:39:37;;;;;;;;;;;-1.60;99.90;;;;;;4951418;29;19934;-71
2023/01/21 08:42:07;;;;;;;;;;;-1.70;99.90;;;;;;4958832;28;20021;-71
2023/01/21 08:44:36;;;;;;;;;;;-1.60;99.90;;;;;;4943150;28;19951;-71
2023/01/21 08:47:05;;;;;;;;;;;-1.60;99.90;;;;;;4951345;28;20466;-74
2023/01/21 08:49:34;;;;;;;;;;;-1.60;99.90;;;;;;4952500;28;19930;-73
2023/01/21 08:52:10;;;;;;;;;;;-1.60;99.90;;;;;;4955971;28;19994;-71
2023/01/21 08:54:40;;;;;;;;;;;-1.60;99.90;;;;;;4940785;28;20338;-71
2023/01/21 08:57:11;;;;;;;;;;;-1.50;99.90;;;;;;4928545;28;19940;-72
2023/01/21 08:59:44;;;;;;;;;;;-1.50;99.90;;;;;;4946177;28;19934;-71
2023/01/21 09:02:14;;;;;;;;;;;-1.50;99.90;;;;;;4959732;28;20393;-71
2023/01/21 09:04:49;;;;;;;;;;;-1.50;99.90;;;;;;4938527;28;20276;-71
2023/01/21 09:07:19;;;;;;;;;;;-1.50;99.90;;;;;;4943184;28;19936;-71
2023/01/21 09:09:52;;;;;;;;;;;-1.50;99.90;;;;;;4908654;28;19961;-72
2023/01/21 09:12:21;;;;;;;;;;;-1.50;99.90;;;;;;4945188;28;20025;-71
2023/01/21 09:14:50;;;;;;;;;;;-1.40;99.90;;;;;;4947704;28;20395;-71
2023/01/21 09:17:21;;;;;;;;;;;-1.40;99.90;;;;;;4961902;28;19930;-71
2023/01/21 09:19:50;;;;;;;;;;;-1.30;99.90;;;;;;4914714;28;20020;-72
2023/01/21 09:22:19;;;;;;;;;;;-1.30;99.90;;;;;;4941285;28;20015;-71
2023/01/21 09:24:48;;;;;;;;;;;-1.30;99.90;;;;;;4944808;28;19926;-71
2023/01/21 09:27:26;;;;;;;;;;;-1.30;99.90;;;;;;4961683;28;19932;-71
2023/01/21 09:29:56;;;;;;;;;;;-1.20;99.90;;;;;;4945178;28;19965;-71
2023/01/21 09:32:26;;;;;;;;;;;-1.20;99.90;;;;;;4950198;28;20282;-70
2023/01/21 09:34:55;;;;;;;;;;;-1.20;99.90;;;;;;4952863;28;20018;-71
2023/01/21 09:37:24;;;;;;;;;;;-1.20;99.90;;;;;;4942959;28;19927;-71
2023/01/21 09:39:53;;;;;;;;;;;-1.20;99.90;;;;;;4963959;28;20456;-74
2023/01/21 09:42:25;;;;;;;;;;;-1.20;99.90;;;;;;4942228;28;19969;-71
2023/01/21 09:44:57;;;;;;;;;;;-1.20;99.90;;;;;;4953951;28;19925;-72
2023/01/21 09:47:35;;;;;;;;;;;-1.10;99.90;;;;;;4957000;28;20389;-71
2023/01/21 09:50:13;;;;;;;;;;;-1.10;99.90;;;;;;4937664;28;19938;-73
2023/01/21 09:52:44;;;;;;;;;;;-1.10;99.90;;;;;;4957692;28;19930;-72
2023/01/21 09:55:17;;;;;;;;;;;-1.10;99.90;;;;;;4957741;28;19927;-71
2023/01/21 09:58:08;;;;;;;;;;;-1.10;99.90;;;;;;4923108;28;19930;-71
2023/01/21 10:00:56;;;;;;;;;;;-1.10;99.90;;;;;;4935916;28;19997;-71
2023/01/21 10:03:32;;;;;;;;;;;-1.10;99.90;;;;;;4940186;28;20190;-74
2023/01/21 10:06:12;;;;;;;;;;;-1.10;99.90;;;;;;4939969;29;19927;-71
2023/01/21 10:08:53;;;;;;;;;;;-1.00;99.90;;;;;;4943798;29;20433;-72
2023/01/21 10:11:54;;;;;;;;;;;-1.10;99.90;;;;;;4935395;29;20029;-71
2023/01/21 10:14:38;;;;;;;;;;;-1.00;99.90;;;;;;4928774;29;19926;-71
2023/01/21 10:17:07;;;;;;;;;;;-1.10;99.90;;;;;;4950808;28;19978;-71
2023/01/21 10:19:40;;;;;;;;;;;-1.00;99.90;;;;;;4951903;28;19931;-71
2023/01/21 10:22:26;;;;;;;;;;;-1.00;99.90;;;;;;4935785;29;20417;-71
2023/01/21 10:25:07;;;;;;;;;;;-1.00;99.90;;;;;;4939560;28;20404;-71
2023/01/21 10:27:40;;;;;;;;;;;-1.00;99.90;;;;;;4930907;29;19936;-71
2023/01/21 10:30:28;;;;;;;;;;;-0.90;99.90;;;;;;4950717;28;20390;-71
2023/01/21 10:32:57;;;;;;;;;;;-0.80;99.90;;;;;;4933602;29;19937;-71
2023/01/21 10:35:44;;;;;;;;;;;-0.70;99.90;;;;;;4932488;29;20397;-71
2023/01/21 10:38:39;;;;;;;;;;;-0.70;99.90;;;;;;4935423;29;20446;-71
2023/01/21 10:41:28;;;;;;;;;;;-0.60;99.90;;;;;;4952193;29;20474;-71
2023/01/21 10:44:11;;;;;;;;;;;-0.60;99.90;;;;;;4936932;28;20528;-71
2023/01/21 10:46:58;;;;;;;;;;;-0.60;99.90;;;;;;4953150;28;19962;-71
2023/01/21 10:49:45;;;;;;;;;;;-0.60;99.90;;;;;;4933200;29;19926;-71
2023/01/21 10:52:40;;;;;;;;;;;-0.50;99.90;;;;;;4917216;29;19984;-71
2023/01/21 10:55:20;;;;;;;;;;;-0.40;99.90;;;;;;4947017;28;20403;-72
2023/01/21 10:58:02;;;;;;;;;;;-0.40;99.90;;;;;;4944085;29;19927;-72
2023/01/21 11:00:38;;;;;;;;;;;-0.40;99.90;;;;;;4907443;29;19931;-71
2023/01/21 11:03:24;;;;;;;;;;;-0.40;99.90;;;;;;4952176;28;19978;-73
2023/01/21 11:05:54;;;;;;;;;;;-0.40;99.90;;;;;;4933848;28;19962;-71
2023/01/21 11:08:25;;;;;;;;;;;-0.40;99.90;;;;;;4961216;28;19927;-70
2023/01/21 11:10:54;;;;;;;;;;;-0.20;99.90;;;;;;4927605;29;19927;-71
2023/01/21 11:13:24;;;;;;;;;;;-0.10;99.90;;;;;;4925909;29;20433;-71
2023/01/21 11:15:55;;;;;;;;;;;-0.10;99.90;;;;;;4948957;28;19930;-71
2023/01/21 11:18:41;;;;;;;;;;;-0.10;99.90;;;;;;4936935;29;19941;-71
2023/01/21 11:21:18;;;;;;;;;;;-0.10;99.90;;;;;;4936283;29;19926;-71
2023/01/21 11:23:57;;;;;;;;;;;-0.20;99.90;;;;;;4914720;29;19926;-71
2023/01/21 11:26:28;;;;;;;;;;;-0.20;99.90;;;;;;4924965;28;19930;-71
2023/01/21 11:29:10;;;;;;;;;;;-0.20;99.90;;;;;;4946806;28;19927;-70
2023/01/21 11:31:47;;;;;;;;;;;-0.20;99.90;;;;;;4961903;28;20041;-70
2023/01/21 11:34:18;;;;;;;;;;;-0.30;99.90;;;;;;4941423;28;19930;-71
2023/01/21 11:37:02;;;;;;;;;;;-0.20;99.90;;;;;;4955358;28;19965;-71
2023/01/21 11:39:33;;;;;;;;;;;-0.20;99.90;;;;;;4956027;28;20021;-71
2023/01/21 11:42:06;;;;;;;;;;;-0.20;99.90;;;;;;4935877;29;19927;-71
2023/01/21 11:44:39;;;;;;;;;;;-0.20;99.90;;;;;;4935474;29;19927;-71
2023/01/21 11:47:25;;;;;;;;;;;-0.20;99.90;;;;;;4947458;28;19934;-71
2023/01/21 11:49:53;;;;;;;;;;;-0.20;99.90;;;;;;4953833;28;19927;-70
2023/01/21 11:52:23;;;;;;;;;;;-0.20;99.90;;;;;;4946071;29;19934;-71
2023/01/21 11:55:02;;;;;;;;;;;-0.20;99.90;;;;;;4930828;28;19930;-72
2023/01/21 11:57:33;;;;;;;;;;;-0.20;99.90;;;;;;4933447;28;19929;-71
2023/01/21 12:00:13;;;;;;;;;;;-0.20;99.90;;;;;;4958579;28;19930;-70
2023/01/21 12:02:50;;;;;;;;;;;-0.20;99.90;;;;;;4956859;28;19927;-70
2023/01/21 12:05:30;;;;;;;;;;;-0.20;99.90;;;;;;4938450;28;19926;-72
2023/01/21 12:08:00;;;;;;;;;;;-0.20;99.90;;;;;;4926093;28;19949;-72
2023/01/21 12:10:35;;;;;;;;;;;-0.20;99.90;;;;;;4937035;28;19990;-70
2023/01/21 12:13:11;;;;;;;;;;;-0.20;99.90;;;;;;4937457;28;19935;-74
2023/01/21 12:15:49;;;;;;;;;;;-0.20;99.90;;;;;;4951293;28;20308;-72
2023/01/21 12:18:31;;;;;;;;;;;-0.30;99.90;;;;;;4955936;28;20419;-70
2023/01/21 12:21:21;;;;;;;;;;;-0.30;99.90;;;;;;4946811;28;19930;-73
2023/01/21 12:23:49;;;;;;;;;;;-0.40;99.90;;;;;;4953209;28;19926;-70
2023/01/21 12:26:44;;;;;;;;;;;-0.40;99.90;;;;;;4937071;28;19930;-71
2023/01/21 12:29:53;;;;;;;;;;;-0.40;99.90;;;;;;4945081;28;20007;-71
2023/01/21 12:32:53;;;;;;;;;;;-0.40;99.90;;;;;;4944913;28;20041;-72
2023/01/21 12:35:37;;;;;;;;;;;-0.40;99.90;;;;;;4922419;28;20016;-70
2023/01/21 12:38:13;;;;;;;;;;;-0.40;99.90;;;;;;4947954;28;19926;-70
2023/01/21 12:40:54;;;;;;;;;;;-0.50;99.90;;;;;;4954804;28;19927;-70
2023/01/21 12:43:36;;;;;;;;;;;-0.50;99.90;;;;;;4941929;28;22354;-71
2023/01/21 12:46:10;;;;;;;;;;;-0.50;99.90;;;;;;4931402;28;20025;-72
2023/01/21 12:48:46;;;;;;;;;;;-0.50;99.90;;;;;;4936194;29;20378;-71
2023/01/21 12:51:22;;;;;;;;;;;-0.40;99.90;;;;;;4960438;28;20028;-73
2023/01/21 12:54:12;;;;;;;;;;;-0.40;99.90;;;;;;4952591;28;19970;-71
2023/01/21 12:56:44;;;;;;;;;;;-0.40;99.90;;;;;;4954180;28;19981;-70
2023/01/21 12:59:22;;;;;;;;;;;-0.40;99.90;;;;;;4947394;29;19966;-71
2023/01/21 13:01:55;;;;;;;;;;;-0.40;99.90;;;;;;4942776;29;19934;-71
2023/01/21 13:04:43;;;;;;;;;;;-0.40;99.90;;;;;;4950545;28;20596;-72
2023/01/21 13:07:31;;;;;;;;;;;-0.40;99.90;;;;;;4954550;28;19937;-70
2023/01/21 13:09:59;;;;;;;;;;;-0.50;99.90;;;;;;4928588;28;19934;-69
2023/01/21 13:12:30;;;;;;;;;;;-0.50;99.90;;;;;;4944659;28;20325;-73
2023/01/21 13:15:08;;;;;;;;;;;-0.50;99.90;;;;;;4931463;28;19930;-71
2023/01/21 13:17:40;;;;;;;;;;;-0.60;99.90;;;;;;4927729;29;19934;-71
2023/01/21 13:20:13;;;;;;;;;;;-0.60;99.90;;;;;;4920461;29;20029;-70
2023/01/21 13:22:46;;;;;;;;;;;-0.50;99.90;;;;;;4902540;29;19926;-71
2023/01/21 13:25:35;;;;;;;;;;;-0.50;99.90;;;;;;4934392;29;19937;-70
2023/01/21 13:28:13;;;;;;;;;;;-0.50;99.90;;;;;;4925887;29;19926;-71
2023/01/21 13:30:41;;;;;;;;;;;-0.50;99.90;;;;;;4941896;28;20013;-70
2023/01/21 13:33:16;;;;;;;;;;;-0.60;99.90;;;;;;4923667;29;19927;-72
2023/01/21 13:35:47;;;;;;;;;;;-0.60;99.90;;;;;;4934071;28;20156;-73
2023/01/21 13:38:16;;;;;;;;;;;-0.60;99.90;;;;;;4935698;29;19931;-72
2023/01/21 13:40:53;;;;;;;;;;;-0.60;99.90;;;;;;4932433;28;19927;-72
2023/01/21 13:43:33;;;;;;;;;;;-0.60;99.90;;;;;;4936438;28;20041;-70
2023/01/21 13:46:05;;;;;;;;;;;-0.50;99.90;;;;;;4918684;28;19972;-70
2023/01/21 13:48:52;;;;;;;;;;;-0.50;99.90;;;;;;4934837;29;19945;-71
2023/01/21 13:51:44;;;;;;;;;;;-0.40;99.90;;;;;;4934171;28;19930;-71
2023/01/21 13:54:40;;;;;;;;;;;-0.50;99.90;;;;;;4926437;28;19985;-71
2023/01/21 13:57:10;;;;;;;;;;;-0.50;99.90;;;;;;4938978;28;19927;-71
2023/01/21 13:59:44;;;;;;;;;;;-0.50;99.90;;;;;;4938292;28;20278;-72
2023/01/21 14:02:21;;;;;;;;;;;-0.50;99.90;;;;;;4955390;28;19935;-72
2023/01/21 14:04:55;;;;;;;;;;;-0.50;99.90;;;;;;4951197;28;19926;-72
2023/01/21 14:07:29;;;;;;;;;;;-0.60;99.90;;;;;;4933534;29;19931;-72
2023/01/21 14:10:03;;;;;;;;;;;-0.60;99.90;;;;;;4939883;28;19978;-72
2023/01/21 14:12:47;;;;;;;;;;;-0.60;99.90;;;;;;4929779;29;19937;-72
2023/01/21 14:15:32;;;;;;;;;;;-0.60;99.90;;;;;;4934059;28;19990;-73
2023/01/21 14:18:24;;;;;;;;;;;-0.60;99.90;;;;;;4949865;28;19970;-72
2023/01/21 14:21:19;;;;;;;;;;;-0.60;99.90;;;;;;4936726;28;20025;-72
2023/01/21 14:24:12;;;;;;;;;;;-0.60;99.90;;;;;;4914793;28;19926;-73
2023/01/21 14:27:05;;;;;;;;;;;-0.60;99.90;;;;;;4946004;28;19927;-70
2023/01/21 14:29:37;;;;;;;;;;;-0.60;99.90;;;;;;4932935;29;20554;-73
2023/01/21 14:32:12;;;;;;;;;;;-0.60;99.90;;;;;;4918532;29;20465;-71
2023/01/21 14:34:41;;;;;;;;;;;-0.60;99.90;;;;;;4933665;28;19926;-70
2023/01/21 14:37:13;;;;;;;;;;;-0.60;99.90;;;;;;4932775;28;19933;-71
2023/01/21 14:40:00;;;;;;;;;;;-0.60;99.90;;;;;;4956806;28;19934;-72
2023/01/21 14:43:04;;;;;;;;;;;-0.60;99.90;;;;;;4951806;28;20021;-72
2023/01/21 14:45:48;;;;;;;;;;;-0.60;99.90;;;;;;4927146;28;19930;-72
2023/01/21 14:48:31;;;;;;;;;;;-0.60;99.90;;;;;;4941033;29;19930;-72
2023/01/21 14:51:05;;;;;;;;;;;-0.60;99.90;;;;;;4948430;28;19928;-72
2023/01/21 14:53:47;;;;;;;;;;;-0.60;99.90;;;;;;4949626;28;20374;-72
2023/01/21 14:56:19;;;;;;;;;;;-0.60;99.90;;;;;;4946585;28;19926;-72
2023/01/21 14:58:56;;;;;;;;;;;-0.70;99.90;;;;;;4918371;28;19935;-72